createdAt,value
2022-10-16T00:02:00.961Z,2.90
2022-10-16T00:04:04.200Z,2.87
2022-10-16T00:06:07.661Z,2.85
2022-10-16T00:08:14.472Z,2.86
2022-10-16T00:10:17.200Z,2.84
2022-10-16T00:12:20.388Z,2.84
2022-10-16T00:14:23.049Z,2.83
2022-10-16T00:16:26.422Z,2.86
2022-10-16T00:18:30.327Z,2.85
2022-10-16T00:20:36.039Z,2.84
2022-10-16T00:22:57.256Z,2.82
2022-10-16T00:25:00.548Z,2.78
2022-10-16T00:27:03.234Z,2.81
2022-10-16T00:29:07.002Z,2.80
2022-10-16T00:31:12.567Z,2.79
2022-10-16T00:33:15.186Z,2.78
2022-10-16T00:35:17.915Z,2.72
2022-10-16T00:37:20.564Z,2.74
2022-10-16T00:39:23.454Z,2.71
2022-10-16T00:41:26.792Z,2.67
2022-10-16T00:43:37.286Z,2.63
2022-10-16T00:45:39.963Z,2.61
2022-10-16T00:47:48.390Z,2.62
2022-10-16T00:49:54.988Z,2.60
2022-10-16T00:51:57.743Z,2.58
2022-10-16T00:54:02.415Z,2.57
2022-10-16T00:56:05.839Z,2.57
2022-10-16T00:58:08.577Z,2.56
2022-10-16T01:00:17.002Z,2.50
2022-10-16T01:02:19.847Z,2.47
2022-10-16T01:04:23.927Z,2.48
2022-10-16T01:06:44.327Z,2.47
2022-10-16T01:09:15.010Z,2.41
2022-10-16T01:11:40.040Z,2.38
2022-10-16T01:13:47.945Z,2.37
2022-10-16T01:15:50.549Z,2.39
2022-10-16T01:18:12.074Z,2.38
2022-10-16T01:20:31.798Z,2.37
2022-10-16T01:22:57.278Z,2.31
2022-10-16T01:25:06.647Z,2.28
2022-10-16T01:27:13.706Z,2.25
2022-10-16T01:29:21.839Z,2.23
2022-10-16T01:31:28.775Z,2.20
2022-10-16T01:33:44.050Z,2.14
2022-10-16T01:35:53.450Z,2.14
2022-10-16T01:38:11.334Z,2.16
2022-10-16T01:40:18.339Z,2.17
2022-10-16T01:42:28.463Z,2.18
2022-10-16T01:44:34.010Z,2.16
2022-10-16T01:46:40.672Z,2.19
2022-10-16T01:48:43.277Z,2.23
2022-10-16T01:50:56.618Z,2.20
2022-10-16T01:52:59.948Z,2.21
2022-10-16T01:55:06.525Z,2.19
2022-10-16T01:57:10.325Z,2.11
2022-10-16T01:59:17.749Z,2.08
2022-10-16T02:01:23.172Z,2.05
2022-10-16T02:03:25.876Z,2.02
2022-10-16T02:05:43.310Z,2.03
2022-10-16T02:07:46.152Z,2.00
2022-10-16T02:09:48.722Z,1.99
2022-10-16T02:11:55.453Z,1.99
2022-10-16T02:14:05.735Z,1.98
2022-10-16T02:16:08.856Z,1.98
2022-10-16T02:18:11.912Z,1.98
2022-10-16T02:20:14.683Z,1.97
2022-10-16T02:22:24.225Z,1.93
2022-10-16T02:24:36.426Z,1.92
2022-10-16T02:26:52.839Z,1.84
2022-10-16T02:29:01.158Z,1.84
2022-10-16T02:31:07.969Z,1.77
2022-10-16T02:33:14.773Z,1.77
2022-10-16T02:35:20.041Z,1.76
2022-10-16T02:37:22.834Z,1.74
2022-10-16T02:39:26.121Z,1.75
2022-10-16T02:41:29.145Z,1.75
2022-10-16T02:43:31.739Z,1.77
2022-10-16T02:45:34.654Z,1.81
2022-10-16T02:47:37.567Z,1.84
2022-10-16T02:49:40.218Z,1.84
2022-10-16T02:51:42.836Z,1.89
2022-10-16T02:53:45.506Z,1.91
2022-10-16T02:55:48.182Z,1.89
2022-10-16T02:57:50.820Z,1.96
2022-10-16T02:59:53.684Z,1.98
2022-10-16T03:01:56.224Z,2.01
2022-10-16T03:03:58.810Z,2.05
2022-10-16T03:06:01.392Z,2.06
2022-10-16T03:08:04.116Z,2.10
2022-10-16T03:10:07.240Z,2.16
2022-10-16T03:12:09.932Z,2.18
2022-10-16T03:14:12.545Z,2.21
2022-10-16T03:16:15.120Z,2.25
2022-10-16T03:18:17.820Z,2.27
2022-10-16T03:20:20.428Z,2.31
2022-10-16T03:22:23.148Z,2.35
2022-10-16T03:24:25.722Z,2.31
2022-10-16T03:26:28.330Z,2.35
2022-10-16T03:28:31.033Z,2.39
2022-10-16T03:30:33.623Z,2.42
2022-10-16T03:34:43.787Z,2.52
2022-10-16T03:36:46.400Z,2.54
2022-10-16T03:38:48.989Z,2.57
2022-10-16T03:40:51.563Z,2.60
2022-10-16T03:42:56.472Z,2.62
2022-10-16T03:44:59.077Z,2.65
2022-10-16T03:47:01.654Z,2.70
2022-10-16T03:49:07.447Z,2.73
2022-10-16T03:51:12.390Z,2.79
2022-10-16T03:53:15.878Z,2.78
2022-10-16T03:55:18.469Z,2.82
2022-10-16T03:57:21.860Z,2.87
2022-10-16T03:59:24.568Z,2.91
2022-10-16T04:01:27.250Z,2.94
2022-10-16T04:03:30.236Z,2.92
2022-10-16T04:05:32.860Z,3.01
2022-10-16T04:07:35.681Z,3.06
2022-10-16T04:09:38.362Z,3.14
2022-10-16T04:11:41.122Z,3.17
2022-10-16T04:13:43.843Z,3.24
2022-10-16T04:15:46.866Z,3.32
2022-10-16T04:17:49.774Z,3.37
2022-10-16T04:19:52.332Z,3.41
2022-10-16T04:21:54.960Z,3.45
2022-10-16T04:23:57.802Z,3.49
2022-10-16T04:26:01.399Z,3.55
2022-10-16T04:28:04.283Z,3.59
2022-10-16T04:30:07.609Z,3.61
2022-10-16T04:32:10.698Z,3.65
2022-10-16T04:34:13.378Z,3.66
2022-10-16T04:36:16.041Z,3.64
2022-10-16T04:38:18.609Z,3.65
2022-10-16T04:40:21.286Z,3.66
2022-10-16T04:42:24.084Z,3.67
2022-10-16T04:44:26.738Z,3.67
2022-10-16T04:46:29.316Z,3.66
2022-10-16T04:48:32.665Z,3.63
2022-10-16T04:50:35.373Z,3.61
2022-10-16T04:52:37.964Z,3.59
2022-10-16T04:54:41.212Z,3.60
2022-10-16T04:56:51.552Z,3.62
2022-10-16T04:58:54.602Z,3.60
2022-10-16T05:00:57.341Z,3.59
2022-10-16T05:03:01.962Z,3.58
2022-10-16T05:05:04.921Z,3.58
2022-10-16T05:07:07.424Z,3.56
2022-10-16T05:09:10.075Z,3.56
2022-10-16T05:11:12.633Z,3.55
2022-10-16T05:13:15.350Z,3.54
2022-10-16T05:15:18.256Z,3.53
2022-10-16T05:17:20.852Z,3.53
2022-10-16T05:19:27.174Z,3.52
2022-10-16T05:21:30.563Z,3.54
2022-10-16T05:23:33.646Z,3.54
2022-10-16T05:25:36.305Z,3.60
2022-10-16T05:27:38.896Z,3.66
2022-10-16T05:29:41.576Z,3.71
2022-10-16T05:31:44.291Z,3.72
2022-10-16T05:33:47.077Z,3.75
2022-10-16T05:35:50.894Z,3.77
2022-10-16T05:37:54.129Z,3.84
2022-10-16T05:39:56.716Z,3.86
2022-10-16T05:41:59.465Z,3.88
2022-10-16T05:44:05.762Z,3.90
2022-10-16T05:46:08.388Z,3.92
2022-10-16T05:48:10.976Z,3.94
2022-10-16T05:50:13.511Z,3.99
2022-10-16T05:52:16.103Z,4.00
2022-10-16T05:54:18.759Z,4.05
2022-10-16T05:56:21.450Z,4.11
2022-10-16T05:58:30.725Z,4.17
2022-10-16T06:00:33.406Z,4.26
2022-10-16T06:02:36.137Z,4.27
2022-10-16T06:04:38.820Z,4.41
2022-10-16T06:06:42.393Z,4.53
2022-10-16T06:08:46.673Z,4.63
2022-10-16T06:10:49.847Z,4.70
2022-10-16T06:12:52.490Z,4.74
2022-10-16T06:14:55.129Z,4.77
2022-10-16T06:16:57.730Z,4.85
2022-10-16T06:19:03.327Z,4.88
2022-10-16T06:21:17.410Z,4.83
2022-10-16T06:23:20.247Z,4.78
2022-10-16T06:25:22.827Z,4.73
2022-10-16T06:27:25.905Z,4.74
2022-10-16T06:29:28.897Z,4.66
2022-10-16T06:31:34.638Z,4.61
2022-10-16T06:33:38.267Z,4.55
2022-10-16T06:35:41.002Z,4.53
2022-10-16T06:37:43.618Z,4.55
2022-10-16T06:39:46.207Z,4.67
2022-10-16T06:41:49.134Z,4.72
2022-10-16T06:43:53.412Z,4.74
2022-10-16T06:45:57.354Z,4.76
2022-10-16T06:48:00.128Z,4.75
2022-10-16T06:50:02.798Z,4.74
2022-10-16T06:52:06.405Z,4.74
2022-10-16T06:54:09.143Z,4.82
2022-10-16T06:56:23.931Z,4.95
2022-10-16T06:58:26.834Z,5.01
2022-10-16T07:00:29.383Z,5.08
2022-10-16T07:02:32.146Z,5.19
2022-10-16T07:04:34.841Z,5.30
2022-10-16T07:06:37.525Z,5.40
2022-10-16T07:08:42.487Z,5.51
2022-10-16T07:10:45.059Z,5.60
2022-10-16T07:12:47.757Z,5.69
2022-10-16T07:14:53.269Z,5.79
2022-10-16T07:16:55.879Z,5.88
2022-10-16T07:19:01.289Z,5.95
2022-10-16T07:21:12.332Z,6.01
2022-10-16T07:23:15.072Z,6.08
2022-10-16T07:25:17.847Z,6.11
2022-10-16T07:27:20.550Z,6.25
2022-10-16T07:29:23.379Z,6.33
2022-10-16T07:31:26.445Z,6.40
2022-10-16T07:33:30.105Z,6.42
2022-10-16T07:35:32.745Z,6.46
2022-10-16T07:37:35.383Z,6.51
2022-10-16T07:39:38.167Z,6.59
2022-10-16T07:41:40.795Z,6.66
2022-10-16T07:43:52.100Z,6.72
2022-10-16T07:45:56.925Z,6.76
2022-10-16T07:48:00.897Z,6.83
2022-10-16T07:50:03.749Z,6.90
2022-10-16T07:52:06.345Z,6.90
2022-10-16T07:54:12.680Z,7.03
2022-10-16T07:56:16.160Z,7.09
2022-10-16T07:58:18.859Z,7.20
2022-10-16T08:00:21.431Z,7.29
2022-10-16T08:02:24.089Z,7.38
2022-10-16T08:04:26.844Z,7.46
2022-10-16T08:06:29.529Z,7.57
2022-10-16T08:08:32.295Z,7.63
2022-10-16T08:10:35.142Z,7.68
2022-10-16T08:12:37.865Z,7.72
2022-10-16T08:14:43.308Z,7.80
2022-10-16T08:16:49.092Z,7.88
2022-10-16T08:18:52.802Z,7.87
2022-10-16T08:21:01.143Z,7.88
2022-10-16T08:23:04.495Z,7.93
2022-10-16T08:25:07.310Z,7.99
2022-10-16T08:27:10.215Z,7.97
2022-10-16T08:29:14.302Z,7.93
2022-10-16T08:33:25.024Z,7.98
2022-10-16T08:35:27.798Z,8.02
2022-10-16T08:37:34.185Z,7.99
2022-10-16T08:39:36.844Z,8.05
2022-10-16T08:41:59.131Z,8.10
2022-10-16T08:44:26.108Z,8.17
2022-10-16T08:47:04.479Z,8.23
2022-10-16T08:49:12.745Z,8.23
2022-10-16T08:51:33.644Z,8.24
2022-10-16T08:53:50.303Z,8.30
2022-10-16T08:55:54.721Z,8.37
2022-10-16T08:57:57.720Z,8.44
2022-10-16T09:00:14.514Z,8.57
2022-10-16T09:02:53.621Z,8.67
2022-10-16T09:05:24.598Z,8.84
2022-10-16T09:07:54.976Z,8.86
2022-10-16T09:10:12.451Z,9.00
2022-10-16T09:12:28.384Z,9.10
2022-10-16T09:14:37.782Z,9.23
2022-10-16T09:16:52.383Z,9.35
2022-10-16T09:19:06.838Z,9.57
2022-10-16T09:21:21.592Z,9.76
2022-10-16T09:23:28.862Z,9.91
2022-10-16T09:25:33.921Z,10.10
2022-10-16T09:27:36.657Z,10.26
2022-10-16T09:29:39.404Z,10.25
2022-10-16T09:31:43.056Z,10.50
2022-10-16T09:33:50.374Z,10.55
2022-10-16T09:35:59.578Z,10.61
2022-10-16T09:38:02.268Z,10.56
2022-10-16T09:40:07.637Z,10.52
2022-10-16T09:42:15.460Z,10.49
2022-10-16T09:44:33.054Z,10.53
2022-10-16T09:46:37.427Z,10.52
2022-10-16T09:48:50.677Z,10.61
2022-10-16T09:51:01.288Z,10.47
2022-10-16T09:53:14.268Z,10.58
2022-10-16T09:55:19.628Z,10.60
2022-10-16T09:57:23.377Z,10.69
2022-10-16T09:59:27.765Z,10.71
2022-10-16T10:01:39.617Z,10.79
2022-10-16T10:03:43.313Z,10.79
2022-10-16T10:05:50.856Z,10.84
2022-10-16T10:08:03.246Z,10.85
2022-10-16T10:10:07.668Z,10.92
2022-10-16T10:12:27.300Z,10.97
2022-10-16T10:14:38.151Z,10.99
2022-10-16T10:16:40.840Z,10.94
2022-10-16T10:18:43.467Z,10.95
2022-10-16T10:20:46.153Z,10.99
2022-10-16T10:22:48.870Z,10.99
2022-10-16T10:25:10.711Z,11.08
2022-10-16T10:27:17.881Z,11.08
2022-10-16T10:29:37.922Z,11.08
2022-10-16T10:31:54.520Z,11.09
2022-10-16T10:34:26.334Z,11.08
2022-10-16T10:36:39.339Z,11.12
2022-10-16T10:38:48.679Z,11.06
2022-10-16T10:41:26.526Z,10.87
2022-10-16T10:43:56.241Z,10.68
2022-10-16T10:46:07.021Z,10.63
2022-10-16T10:48:51.139Z,10.67
2022-10-16T10:51:03.511Z,10.70
2022-10-16T10:53:19.575Z,10.79
2022-10-16T10:55:40.585Z,10.93
2022-10-16T10:58:09.676Z,10.97
2022-10-16T11:00:12.473Z,11.10
2022-10-16T11:02:38.789Z,11.12
2022-10-16T11:04:58.792Z,11.11
2022-10-16T11:07:07.148Z,10.96
2022-10-16T11:09:22.027Z,11.09
2022-10-16T11:11:52.530Z,11.07
2022-10-16T11:14:18.070Z,11.07
2022-10-16T11:16:30.326Z,10.99
2022-10-16T11:18:49.191Z,10.96
2022-10-16T11:21:07.754Z,10.94
2022-10-16T11:23:32.705Z,10.93
2022-10-16T11:25:35.499Z,10.95
2022-10-16T11:27:57.089Z,11.04
2022-10-16T11:30:07.936Z,11.18
2022-10-16T11:32:23.409Z,11.39
2022-10-16T11:34:53.282Z,11.57
2022-10-16T11:37:06.819Z,11.71
2022-10-16T11:39:19.842Z,11.82
2022-10-16T11:41:31.592Z,11.81
2022-10-16T11:43:37.254Z,11.75
2022-10-16T11:45:51.560Z,11.69
2022-10-16T11:48:25.897Z,11.53
2022-10-16T11:50:54.395Z,11.35
2022-10-16T11:53:00.466Z,11.31
2022-10-16T11:55:15.755Z,11.36
2022-10-16T11:57:33.134Z,11.53
2022-10-16T11:59:46.306Z,11.69
2022-10-16T12:02:18.928Z,11.82
2022-10-16T12:04:35.490Z,11.84
2022-10-16T12:07:07.645Z,11.82
2022-10-16T12:09:16.770Z,11.81
2022-10-16T12:11:40.830Z,11.78
2022-10-16T12:13:44.418Z,11.74
2022-10-16T12:15:58.801Z,11.79
2022-10-16T12:18:03.237Z,11.89
2022-10-16T12:20:15.101Z,11.90
2022-10-16T12:22:20.485Z,11.80
2022-10-16T12:24:31.297Z,11.69
2022-10-16T12:26:39.229Z,11.51
2022-10-16T12:28:42.970Z,11.43
2022-10-16T12:30:55.843Z,11.40
2022-10-16T12:33:21.022Z,11.41
2022-10-16T12:35:27.560Z,11.36
2022-10-16T12:37:39.594Z,11.32
2022-10-16T12:39:42.677Z,11.34
2022-10-16T12:41:45.351Z,11.32
2022-10-16T12:43:49.191Z,11.21
2022-10-16T12:46:05.653Z,11.14
2022-10-16T12:48:24.569Z,11.08
2022-10-16T12:50:40.513Z,11.04
2022-10-16T12:52:45.618Z,11.10
2022-10-16T12:54:48.531Z,11.05
2022-10-16T12:57:29.386Z,10.98
2022-10-16T12:59:53.728Z,10.89
2022-10-16T13:02:11.191Z,10.80
2022-10-16T13:04:38.048Z,10.72
2022-10-16T13:07:22.380Z,10.60
2022-10-16T13:10:02.138Z,10.54
2022-10-16T13:12:58.195Z,10.61
2022-10-16T13:15:09.228Z,10.82
2022-10-16T13:17:43.975Z,10.73
2022-10-16T13:20:12.446Z,10.61
2022-10-16T13:22:41.279Z,10.51
2022-10-16T13:25:04.791Z,10.44
2022-10-16T13:28:05.722Z,10.35
2022-10-16T13:30:29.913Z,10.22
2022-10-16T13:32:33.744Z,10.13
2022-10-16T13:34:46.558Z,10.07
2022-10-16T13:36:52.257Z,10.01
2022-10-16T13:39:12.973Z,9.99
2022-10-16T13:41:19.701Z,10.01
2022-10-16T13:43:35.930Z,9.99
2022-10-16T13:45:38.535Z,9.95
2022-10-16T13:47:41.218Z,9.94
2022-10-16T13:49:44.057Z,9.94
2022-10-16T13:52:00.810Z,9.88
2022-10-16T13:54:03.497Z,9.85
2022-10-16T13:56:10.924Z,9.81
2022-10-16T13:58:15.826Z,9.80
2022-10-16T14:00:24.027Z,9.78
2022-10-16T14:02:38.466Z,9.74
2022-10-16T14:04:41.158Z,9.71
2022-10-16T14:06:47.214Z,9.65
2022-10-16T14:09:14.992Z,9.66
2022-10-16T14:11:24.863Z,9.63
2022-10-16T14:13:47.630Z,9.59
2022-10-16T14:15:52.880Z,9.53
2022-10-16T14:17:56.055Z,9.47
2022-10-16T14:20:04.198Z,9.44
2022-10-16T14:22:23.217Z,9.36
2022-10-16T14:24:33.306Z,9.32
2022-10-16T14:26:50.500Z,9.20
2022-10-16T14:29:16.411Z,9.20
2022-10-16T14:31:36.975Z,9.12
2022-10-16T14:33:39.565Z,9.03
2022-10-16T14:35:42.225Z,8.96
2022-10-16T14:37:45.511Z,8.90
2022-10-16T14:39:51.940Z,8.83
2022-10-16T14:41:57.987Z,8.71
2022-10-16T14:44:06.677Z,8.63
2022-10-16T14:46:16.671Z,8.48
2022-10-16T14:48:20.900Z,8.51
2022-10-16T14:50:23.893Z,8.48
2022-10-16T14:52:26.554Z,8.44
2022-10-16T14:54:29.272Z,8.40
2022-10-16T14:56:43.553Z,8.36
2022-10-16T14:58:46.375Z,8.30
2022-10-16T15:00:49.523Z,8.30
2022-10-16T15:02:52.624Z,8.23
2022-10-16T15:04:55.843Z,8.22
2022-10-16T15:06:58.464Z,8.19
2022-10-16T15:09:01.153Z,8.16
2022-10-16T15:11:03.989Z,8.14
2022-10-16T15:13:06.773Z,8.11
2022-10-16T15:15:24.813Z,8.10
2022-10-16T15:17:27.592Z,8.04
2022-10-16T15:19:30.914Z,8.02
2022-10-16T15:21:34.005Z,8.14
2022-10-16T15:23:36.585Z,8.14
2022-10-16T15:25:43.870Z,8.16
2022-10-16T15:27:46.512Z,8.19
2022-10-16T15:29:49.230Z,8.20
2022-10-16T15:31:51.947Z,8.20
2022-10-16T15:33:59.400Z,8.25
2022-10-16T15:36:03.466Z,8.29
2022-10-16T15:38:06.194Z,8.29
2022-10-16T15:40:11.225Z,8.34
2022-10-16T15:42:15.219Z,8.35
2022-10-16T15:44:22.638Z,8.37
2022-10-16T15:46:25.750Z,8.38
2022-10-16T15:48:29.461Z,8.41
2022-10-16T15:50:33.002Z,8.42
2022-10-16T15:52:35.710Z,8.43
2022-10-16T15:54:38.419Z,8.42
2022-10-16T15:56:41.094Z,8.45
2022-10-16T15:58:44.794Z,8.48
2022-10-16T16:00:56.094Z,8.46
2022-10-16T16:02:58.840Z,8.47
2022-10-16T16:05:01.665Z,8.48
2022-10-16T16:07:08.380Z,8.49
2022-10-16T16:09:11.175Z,8.44
2022-10-16T16:11:16.472Z,8.48
2022-10-16T16:13:19.141Z,8.49
2022-10-16T16:15:22.677Z,8.48
2022-10-16T16:17:25.517Z,8.49
2022-10-16T16:19:28.240Z,8.47
2022-10-16T16:21:31.074Z,8.45
2022-10-16T16:23:33.744Z,8.46
2022-10-16T16:25:36.441Z,8.48
2022-10-16T16:27:39.667Z,8.46
2022-10-16T16:29:42.378Z,8.42
2022-10-16T16:31:45.393Z,8.46
2022-10-16T16:33:48.384Z,8.44
2022-10-16T16:35:51.229Z,8.40
2022-10-16T16:37:53.892Z,8.44
2022-10-16T16:39:59.493Z,8.44
2022-10-16T16:42:04.169Z,8.43
2022-10-16T16:44:11.675Z,8.45
2022-10-16T16:46:15.868Z,8.44
2022-10-16T16:48:18.692Z,8.43
2022-10-16T16:50:21.405Z,8.42
2022-10-16T16:52:24.040Z,8.43
2022-10-16T16:54:26.814Z,8.42
2022-10-16T16:56:29.562Z,8.40
2022-10-16T16:58:33.604Z,8.36
2022-10-16T17:00:36.537Z,8.37
2022-10-16T17:02:44.302Z,8.36
2022-10-16T17:04:47.017Z,8.35
2022-10-16T17:06:49.600Z,8.35
2022-10-16T17:08:52.370Z,8.35
2022-10-16T17:10:56.306Z,8.34
2022-10-16T17:12:58.960Z,8.33
2022-10-16T17:15:02.169Z,8.33
2022-10-16T17:17:08.074Z,8.31
2022-10-16T17:19:16.903Z,8.28
2022-10-16T17:21:19.982Z,8.27
2022-10-16T17:23:22.845Z,8.24
2022-10-16T17:25:25.549Z,8.27
2022-10-16T17:27:28.513Z,8.23
2022-10-16T17:29:31.428Z,8.22
2022-10-16T17:31:37.478Z,8.14
2022-10-16T17:33:41.386Z,8.14
2022-10-16T17:35:47.133Z,8.16
2022-10-16T17:37:55.533Z,8.13
2022-10-16T17:39:58.664Z,8.09
2022-10-16T17:42:01.692Z,8.09
2022-10-16T17:44:06.012Z,8.05
2022-10-16T17:46:10.338Z,8.01
2022-10-16T17:48:16.136Z,7.98
2022-10-16T17:50:21.844Z,7.93
2022-10-16T17:52:25.213Z,7.89
2022-10-16T17:54:28.637Z,7.86
2022-10-16T17:56:32.013Z,7.82
2022-10-16T17:58:35.292Z,7.77
2022-10-16T18:00:38.093Z,7.72
2022-10-16T18:02:42.620Z,7.64
2022-10-16T18:04:45.342Z,7.59
2022-10-16T18:06:48.273Z,7.54
2022-10-16T18:08:52.453Z,7.46
2022-10-16T18:10:55.168Z,7.37
2022-10-16T18:12:57.925Z,7.31
2022-10-16T18:15:02.955Z,7.23
2022-10-16T18:17:07.366Z,7.18
2022-10-16T18:19:13.448Z,7.11
2022-10-16T18:21:18.277Z,6.96
2022-10-16T18:23:23.186Z,6.98
2022-10-16T18:25:25.869Z,6.93
2022-10-16T18:27:28.960Z,6.88
2022-10-16T18:29:31.885Z,6.85
2022-10-16T18:31:37.803Z,6.83
2022-10-16T18:33:48.274Z,6.72
2022-10-16T18:35:51.213Z,6.74
2022-10-16T18:37:56.094Z,6.71
2022-10-16T18:40:00.009Z,6.68
2022-10-16T18:42:03.043Z,6.65
2022-10-16T18:44:07.329Z,6.59
2022-10-16T18:46:22.009Z,6.52
2022-10-16T18:48:28.207Z,6.48
2022-10-16T18:50:31.297Z,6.47
2022-10-16T18:52:33.946Z,6.43
2022-10-16T18:54:37.734Z,6.40
2022-10-16T18:56:40.695Z,6.37
2022-10-16T18:58:45.357Z,6.33
2022-10-16T19:00:48.151Z,6.31
2022-10-16T19:02:50.874Z,6.31
2022-10-16T19:04:53.730Z,6.27
2022-10-16T19:06:56.465Z,6.25
2022-10-16T19:08:59.248Z,6.23
2022-10-16T19:11:06.125Z,6.22
2022-10-16T19:13:11.010Z,6.18
2022-10-16T19:15:14.017Z,6.16
2022-10-16T19:17:17.188Z,6.17
2022-10-16T19:19:19.897Z,6.17
2022-10-16T19:21:23.418Z,6.18
2022-10-16T19:23:26.146Z,6.20
2022-10-16T19:25:28.792Z,6.21
2022-10-16T19:27:31.502Z,6.23
2022-10-16T19:29:34.100Z,6.21
2022-10-16T19:31:36.673Z,6.24
2022-10-16T19:33:40.398Z,6.26
2022-10-16T19:35:42.979Z,6.24
2022-10-16T19:37:45.532Z,6.27
2022-10-16T19:39:49.721Z,6.33
2022-10-16T19:41:52.416Z,6.35
2022-10-16T19:43:55.635Z,6.36
2022-10-16T19:45:58.342Z,6.41
2022-10-16T19:48:00.900Z,6.41
2022-10-16T19:50:06.320Z,6.42
2022-10-16T19:52:08.981Z,6.42
2022-10-16T19:54:13.245Z,6.40
2022-10-16T19:56:18.979Z,6.38
2022-10-16T19:58:21.927Z,6.35
2022-10-16T20:00:24.575Z,6.35
2022-10-16T20:02:27.461Z,6.32
2022-10-16T20:04:30.338Z,6.34
2022-10-16T20:06:33.040Z,6.33
2022-10-16T20:08:39.995Z,6.33
2022-10-16T20:10:51.958Z,6.33
2022-10-16T20:12:54.730Z,6.23
2022-10-16T20:14:57.502Z,6.24
2022-10-16T20:17:00.362Z,6.21
2022-10-16T20:19:04.235Z,6.19
2022-10-16T20:21:14.622Z,6.14
2022-10-16T20:23:19.168Z,6.18
2022-10-16T20:25:21.905Z,6.15
2022-10-16T20:27:25.645Z,6.13
2022-10-16T20:29:28.580Z,6.17
2022-10-16T20:31:33.171Z,6.18
2022-10-16T20:33:35.764Z,6.18
2022-10-16T20:35:40.752Z,6.21
2022-10-16T20:37:48.964Z,6.21
2022-10-16T20:39:51.576Z,6.21
2022-10-16T20:41:54.514Z,6.19
2022-10-16T20:43:57.457Z,6.09
2022-10-16T20:46:05.856Z,6.17
2022-10-16T20:48:09.258Z,6.18
2022-10-16T20:50:13.844Z,6.16
2022-10-16T20:52:16.440Z,6.18
2022-10-16T20:54:19.132Z,6.17
2022-10-16T20:56:22.492Z,6.16
2022-10-16T20:58:25.215Z,6.13
2022-10-16T21:00:28.062Z,6.14
2022-10-16T21:02:30.710Z,6.15
2022-10-16T21:04:33.285Z,6.12
2022-10-16T21:06:39.162Z,6.12
2022-10-16T21:08:43.596Z,6.11
2022-10-16T21:10:46.166Z,6.11
2022-10-16T21:12:48.852Z,6.14
2022-10-16T21:15:13.477Z,6.14
2022-10-16T21:17:14.421Z,6.06
2022-10-16T21:19:17.381Z,6.13
2022-10-16T21:21:25.602Z,6.14
2022-10-16T21:23:28.743Z,6.13
2022-10-16T21:25:31.522Z,6.14
2022-10-16T21:27:41.074Z,6.12
2022-10-16T21:29:43.673Z,6.16
2022-10-16T21:31:46.428Z,6.16
2022-10-16T21:33:49.621Z,6.21
2022-10-16T21:35:52.163Z,6.24
2022-10-16T21:37:54.781Z,6.24
2022-10-16T21:40:00.963Z,6.26
2022-10-16T21:42:04.586Z,6.21
2022-10-16T21:44:09.867Z,6.24
2022-10-16T21:46:13.149Z,6.25
2022-10-16T21:48:16.002Z,6.22
2022-10-16T21:50:19.496Z,6.23
2022-10-16T21:52:23.045Z,6.18
2022-10-16T21:54:26.464Z,6.20
2022-10-16T21:56:31.408Z,6.18
2022-10-16T21:58:34.577Z,6.14
2022-10-16T22:00:37.534Z,6.09
2022-10-16T22:02:40.357Z,6.06
2022-10-16T22:04:42.967Z,5.98
2022-10-16T22:06:45.838Z,5.87
2022-10-16T22:08:51.065Z,5.84
2022-10-16T22:10:53.850Z,5.78
2022-10-16T22:12:56.639Z,5.75
2022-10-16T22:14:59.390Z,5.69
2022-10-16T22:17:02.120Z,5.63
2022-10-16T22:19:07.501Z,5.57
2022-10-16T22:21:10.590Z,5.49
2022-10-16T22:23:13.488Z,5.44
2022-10-16T22:25:16.089Z,5.36
2022-10-16T22:27:18.840Z,5.36
2022-10-16T22:29:21.486Z,5.32
2022-10-16T22:31:24.144Z,5.32
2022-10-16T22:33:26.858Z,5.27
2022-10-16T22:35:29.895Z,5.29
2022-10-16T22:37:32.697Z,5.27
2022-10-16T22:39:35.386Z,5.26
2022-10-16T22:41:38.161Z,5.25
2022-10-16T22:43:48.157Z,5.21
2022-10-16T22:45:50.838Z,5.20
2022-10-16T22:47:53.387Z,5.21
2022-10-16T22:49:56.015Z,5.23
2022-10-16T22:51:58.712Z,5.26
2022-10-16T22:54:01.323Z,5.29
2022-10-16T22:56:04.623Z,5.37
2022-10-16T22:58:07.287Z,5.44
2022-10-16T23:00:12.978Z,5.49
2022-10-16T23:02:15.850Z,5.58
2022-10-16T23:04:18.496Z,5.62
2022-10-16T23:06:21.025Z,5.65
2022-10-16T23:08:23.574Z,5.72
2022-10-16T23:10:32.598Z,5.75
2022-10-16T23:12:36.169Z,5.80
2022-10-16T23:14:38.823Z,5.84
2022-10-16T23:16:41.462Z,5.83
2022-10-16T23:18:45.081Z,5.85
2022-10-16T23:20:47.592Z,5.84
2022-10-16T23:22:50.647Z,5.82
2022-10-16T23:24:53.221Z,5.77
2022-10-16T23:26:55.758Z,5.78
2022-10-16T23:28:59.131Z,5.73
2022-10-16T23:31:04.531Z,5.71
2022-10-16T23:33:07.122Z,5.67
2022-10-16T23:35:09.874Z,5.62
2022-10-16T23:37:12.456Z,5.56
2022-10-16T23:39:15.381Z,5.54
2022-10-16T23:41:19.441Z,5.50
2022-10-16T23:43:22.210Z,5.44
2022-10-16T23:45:24.769Z,5.42
2022-10-16T23:47:27.754Z,5.40
2022-10-16T23:49:30.495Z,5.33
2022-10-16T23:51:33.129Z,5.29
2022-10-16T23:53:36.223Z,5.26
2022-10-16T23:55:38.791Z,5.19
2022-10-16T23:57:41.585Z,5.14
2022-10-16T23:59:44.194Z,5.10
